Time;durP1;ratioP1;P1;durP2;ratioP2;P2;SDS_P1;SDS_P2;PMS_P1;PMS_P2;Temp;Humidity;BMP_temperature;BMP_pressure;BME280_temperature;BME280_humidity;BME280_pressure;Samples;Min_cycle;Max_cycle;Signal;HPM_P1;HPM_P2
2024/01/15 00:00:41;;;;;;;19.70;10.30;;;;;;;;;;6064989;23;20433;-84
2024/01/15 00:03:10;;;;;;;20.60;9.73;;;;;;;;;;6069231;23;20425;-85
2024/01/15 00:05:38;;;;;;;19.13;10.87;;;;;;;;;;6040804;23;20474;-87
2024/01/15 00:08:05;;;;;;;16.83;9.60;;;;;;;;;;6041560;23;20524;-84
2024/01/15 00:10:34;;;;;;;19.90;10.93;;;;;;;;;;6062723;23;20428;-82
2024/01/15 00:13:04;;;;;;;20.30;11.10;;;;;;;;;;6062565;23;20429;-84
2024/01/15 00:15:33;;;;;;;16.33;10.30;;;;;;;;;;6035796;23;20437;-86
2024/01/15 00:18:04;;;;;;;19.00;9.77;;;;;;;;;;6057765;23;20482;-84
2024/01/15 00:20:34;;;;;;;17.63;11.30;;;;;;;;;;6072229;23;20504;-86
2024/01/15 00:23:01;;;;;;;24.23;11.43;;;;;;;;;;6060731;23;20410;-85
2024/01/15 00:25:29;;;;;;;21.33;11.67;;;;;;;;;;6061017;23;20414;-85
2024/01/15 00:27:56;;;;;;;15.63;10.07;;;;;;;;;;6059866;23;20421;-84
2024/01/15 00:30:23;;;;;;;19.13;10.70;;;;;;;;;;6086107;23;20421;-84
2024/01/15 00:32:50;;;;;;;13.20;8.33;;;;;;;;;;6072304;23;20442;-83
2024/01/15 00:35:19;;;;;;;18.07;10.30;;;;;;;;;;6043779;23;20407;-83
2024/01/15 00:37:46;;;;;;;21.03;11.10;;;;;;;;;;6067844;23;20401;-84
2024/01/15 00:40:13;;;;;;;22.43;12.37;;;;;;;;;;6043572;23;20425;-83
2024/01/15 00:42:41;;;;;;;23.87;11.70;;;;;;;;;;6050289;23;20415;-84
2024/01/15 00:45:08;;;;;;;22.20;11.20;;;;;;;;;;6049872;23;20422;-82
2024/01/15 00:47:36;;;;;;;20.13;10.60;;;;;;;;;;6049360;23;20410;-84
2024/01/15 00:50:03;;;;;;;18.63;10.63;;;;;;;;;;6044252;23;21173;-86
2024/01/15 00:52:31;;;;;;;19.23;11.00;;;;;;;;;;6042475;23;20421;-87
2024/01/15 00:54:58;;;;;;;17.10;10.70;;;;;;;;;;6070124;23;20493;-87
2024/01/15 00:57:25;;;;;;;18.00;11.23;;;;;;;;;;6067936;23;20767;-85
2024/01/15 00:59:52;;;;;;;20.07;9.33;;;;;;;;;;6042232;23;20493;-85
2024/01/15 01:02:19;;;;;;;17.00;11.00;;;;;;;;;;6068622;23;20412;-86
2024/01/15 01:04:46;;;;;;;17.70;10.10;;;;;;;;;;6051769;23;20442;-84
2024/01/15 01:07:14;;;;;;;21.20;12.67;;;;;;;;;;6076441;23;20421;-88
2024/01/15 01:09:41;;;;;;;17.60;10.93;;;;;;;;;;6050218;23;20459;-83
2024/01/15 01:12:09;;;;;;;25.50;10.50;;;;;;;;;;6079885;23;20438;-85
2024/01/15 01:14:36;;;;;;;20.80;11.60;;;;;;;;;;6061662;23;20394;-85
2024/01/15 01:17:03;;;;;;;18.57;9.80;;;;;;;;;;6061512;23;20453;-85
2024/01/15 01:19:31;;;;;;;18.00;10.57;;;;;;;;;;6060749;23;20532;-84
2024/01/15 01:22:04;;;;;;;22.20;11.80;;;;;;;;;;6051907;23;20402;-84
2024/01/15 01:24:31;;;;;;;22.43;11.50;;;;;;;;;;6073910;23;20428;-87
2024/01/15 01:26:58;;;;;;;21.43;10.10;;;;;;;;;;6046563;23;20418;-84
2024/01/15 01:29:26;;;;;;;16.50;10.77;;;;;;;;;;6074194;23;20445;-87
2024/01/15 01:31:54;;;;;;;17.37;11.37;;;;;;;;;;6057172;23;20410;-85
2024/01/15 01:34:21;;;;;;;21.07;10.63;;;;;;;;;;6085820;23;20431;-85
2024/01/15 01:36:48;;;;;;;18.93;10.30;;;;;;;;;;6060256;23;20455;-85
2024/01/15 01:39:19;;;;;;;20.13;11.23;;;;;;;;;;6057610;23;20430;-87
2024/01/15 01:41:46;;;;;;;19.80;10.63;;;;;;;;;;6072726;23;20417;-87
2024/01/15 01:44:13;;;;;;;18.00;10.90;;;;;;;;;;6047814;23;20406;-86
2024/01/15 01:46:41;;;;;;;16.63;10.30;;;;;;;;;;6045553;23;20475;-84
2024/01/15 01:49:09;;;;;;;18.37;10.60;;;;;;;;;;6067853;23;20938;-86
2024/01/15 01:51:38;;;;;;;21.60;11.10;;;;;;;;;;6041415;23;20424;-87
2024/01/15 01:54:07;;;;;;;18.10;9.87;;;;;;;;;;6042396;23;20426;-86
2024/01/15 01:56:34;;;;;;;15.93;9.73;;;;;;;;;;6040974;23;20394;-85
2024/01/15 01:59:02;;;;;;;18.33;11.07;;;;;;;;;;6040432;23;20537;-84
2024/01/15 02:01:32;;;;;;;16.57;11.27;;;;;;;;;;6067183;23;20421;-85
2024/01/15 02:04:04;;;;;;;20.47;10.70;;;;;;;;;;6042697;23;20473;-84
2024/01/15 02:06:34;;;;;;;15.00;9.97;;;;;;;;;;6066803;23;20425;-84
2024/01/15 02:09:01;;;;;;;25.50;11.20;;;;;;;;;;6065718;23;20453;-85
2024/01/15 02:11:29;;;;;;;23.90;11.47;;;;;;;;;;6039690;23;20435;-83
2024/01/15 02:13:56;;;;;;;20.87;12.03;;;;;;;;;;6066505;23;20813;-85
2024/01/15 02:16:23;;;;;;;16.93;9.30;;;;;;;;;;6040583;23;20425;-84
2024/01/15 02:18:50;;;;;;;22.50;11.90;;;;;;;;;;6041277;23;20453;-84
2024/01/15 02:21:19;;;;;;;20.53;10.60;;;;;;;;;;6065599;23;20500;-84
2024/01/15 02:23:46;;;;;;;21.17;11.57;;;;;;;;;;6039678;23;20410;-83
2024/01/15 02:26:14;;;;;;;18.60;11.57;;;;;;;;;;6068834;23;20419;-82
2024/01/15 02:28:44;;;;;;;24.13;12.80;;;;;;;;;;6076448;23;20946;-84
2024/01/15 02:31:11;;;;;;;17.57;10.50;;;;;;;;;;6050796;23;20418;-85
2024/01/15 02:33:38;;;;;;;20.10;10.37;;;;;;;;;;6072613;23;20486;-85
2024/01/15 02:36:06;;;;;;;17.90;9.33;;;;;;;;;;6069233;23;20431;-84
2024/01/15 02:38:33;;;;;;;25.70;11.50;;;;;;;;;;6041527;23;20449;-85
2024/01/15 02:41:00;;;;;;;20.83;10.47;;;;;;;;;;6065808;23;20482;-84
2024/01/15 02:43:27;;;;;;;17.53;10.40;;;;;;;;;;6065482;23;20433;-83
2024/01/15 02:45:54;;;;;;;24.50;11.90;;;;;;;;;;6040767;23;20429;-84
2024/01/15 02:48:22;;;;;;;19.70;11.30;;;;;;;;;;6065908;23;20449;-85
2024/01/15 02:50:49;;;;;;;14.73;9.97;;;;;;;;;;6064476;23;20460;-87
2024/01/15 02:53:16;;;;;;;20.10;11.27;;;;;;;;;;6041205;23;20406;-86
2024/01/15 02:55:44;;;;;;;22.33;11.67;;;;;;;;;;6065666;23;20999;-83
2024/01/15 02:58:13;;;;;;;21.77;11.27;;;;;;;;;;6066584;23;20433;-85
2024/01/15 03:00:41;;;;;;;20.70;11.27;;;;;;;;;;6041092;23;20441;-86
2024/01/15 03:03:10;;;;;;;20.10;10.60;;;;;;;;;;6042946;23;20770;-85
2024/01/15 03:05:37;;;;;;;18.33;10.60;;;;;;;;;;6046874;23;20411;-82
2024/01/15 03:08:04;;;;;;;20.23;9.67;;;;;;;;;;6040872;23;20437;-84
2024/01/15 03:10:32;;;;;;;17.03;10.03;;;;;;;;;;6063660;23;21121;-85
2024/01/15 03:12:59;;;;;;;16.70;10.27;;;;;;;;;;6066445;23;20414;-83
2024/01/15 03:15:27;;;;;;;19.83;12.13;;;;;;;;;;6040097;23;20403;-85
2024/01/15 03:17:54;;;;;;;17.30;10.00;;;;;;;;;;6039089;23;20453;-84
2024/01/15 03:20:21;;;;;;;17.40;10.70;;;;;;;;;;6065865;23;20422;-87
2024/01/15 03:22:49;;;;;;;19.60;10.17;;;;;;;;;;6040585;23;20415;-87
2024/01/15 03:25:16;;;;;;;18.10;11.00;;;;;;;;;;6065204;23;20522;-86
2024/01/15 03:27:43;;;;;;;17.30;10.60;;;;;;;;;;6040367;23;20489;-86
2024/01/15 03:30:11;;;;;;;16.53;9.47;;;;;;;;;;6041840;23;20940;-84
2024/01/15 03:32:38;;;;;;;14.83;9.43;;;;;;;;;;6043048;23;20441;-84
2024/01/15 03:35:08;;;;;;;16.57;11.00;;;;;;;;;;6068635;23;20466;-83
2024/01/15 03:37:36;;;;;;;15.03;9.30;;;;;;;;;;6041617;23;20792;-85
2024/01/15 03:40:03;;;;;;;17.80;10.00;;;;;;;;;;6042794;23;20438;-85
2024/01/15 03:42:31;;;;;;;16.73;10.77;;;;;;;;;;6047346;23;20409;-84
2024/01/15 03:44:58;;;;;;;16.03;9.93;;;;;;;;;;6077853;23;20418;-86
2024/01/15 03:47:28;;;;;;;14.97;10.00;;;;;;;;;;6045289;23;21516;-86
2024/01/15 03:49:55;;;;;;;15.30;9.83;;;;;;;;;;6069780;23;20455;-86
2024/01/15 03:52:23;;;;;;;18.43;10.60;;;;;;;;;;6042847;23;20420;-86
2024/01/15 03:54:52;;;;;;;18.60;10.27;;;;;;;;;;6064762;23;20402;-84
2024/01/15 03:57:20;;;;;;;19.77;10.40;;;;;;;;;;6035719;23;20414;-86
2024/01/15 03:59:47;;;;;;;22.13;11.77;;;;;;;;;;6066752;23;20443;-85
2024/01/15 04:02:14;;;;;;;19.77;11.60;;;;;;;;;;6042369;23;20825;-86
2024/01/15 04:04:43;;;;;;;18.60;11.70;;;;;;;;;;6067038;23;20426;-85
2024/01/15 04:07:10;;;;;;;17.37;11.47;;;;;;;;;;6040005;23;20969;-85
2024/01/15 04:09:38;;;;;;;17.03;10.40;;;;;;;;;;6045263;23;20451;-84
2024/01/15 04:12:08;;;;;;;16.73;11.37;;;;;;;;;;6077038;23;20448;-85
2024/01/15 04:14:35;;;;;;;14.93;10.07;;;;;;;;;;6052324;23;20426;-86
2024/01/15 04:17:02;;;;;;;17.53;10.47;;;;;;;;;;6075917;23;20415;-86
2024/01/15 04:19:29;;;;;;;16.10;10.87;;;;;;;;;;6045235;23;20556;-84
2024/01/15 04:21:57;;;;;;;17.97;10.23;;;;;;;;;;6045389;23;20987;-83
2024/01/15 04:24:24;;;;;;;17.97;10.13;;;;;;;;;;6068976;23;20463;-84
2024/01/15 04:26:53;;;;;;;24.47;12.37;;;;;;;;;;6046238;23;20410;-84
2024/01/15 04:29:20;;;;;;;20.77;10.27;;;;;;;;;;6070888;23;20533;-85
2024/01/15 04:31:47;;;;;;;20.23;11.23;;;;;;;;;;6044532;23;20409;-83
2024/01/15 04:34:14;;;;;;;19.47;9.13;;;;;;;;;;6049602;23;20460;-86
2024/01/15 04:36:42;;;;;;;17.70;11.40;;;;;;;;;;6057117;23;20419;-83
2024/01/15 04:39:11;;;;;;;27.20;10.50;;;;;;;;;;6057499;23;20537;-85
2024/01/15 04:41:38;;;;;;;15.67;9.83;;;;;;;;;;6081369;23;20412;-84
2024/01/15 04:44:05;;;;;;;17.27;8.30;;;;;;;;;;6049965;23;20443;-85
2024/01/15 04:46:32;;;;;;;16.93;9.10;;;;;;;;;;6075233;23;20485;-83
2024/01/15 04:49:00;;;;;;;13.10;7.70;;;;;;;;;;6081274;23;20430;-85
2024/01/15 04:51:35;;;;;;;13.93;9.23;;;;;;;;;;6059954;23;20865;-83
2024/01/15 04:54:02;;;;;;;14.50;8.20;;;;;;;;;;6059600;23;20417;-83
2024/01/15 04:56:29;;;;;;;16.57;9.27;;;;;;;;;;6059161;23;20405;-84
2024/01/15 04:58:57;;;;;;;13.43;9.00;;;;;;;;;;6056340;23;20422;-85
2024/01/15 05:01:24;;;;;;;11.23;8.13;;;;;;;;;;6054612;23;20410;-85
2024/01/15 05:03:57;;;;;;;15.20;8.80;;;;;;;;;;6043977;23;20992;-84
2024/01/15 05:06:26;;;;;;;15.87;8.20;;;;;;;;;;6036995;23;20860;-84
2024/01/15 05:08:53;;;;;;;15.50;8.50;;;;;;;;;;6035525;23;20439;-82
2024/01/15 05:11:21;;;;;;;17.47;8.40;;;;;;;;;;6060331;23;20446;-85
2024/01/15 05:13:48;;;;;;;11.40;8.00;;;;;;;;;;6037126;23;20509;-83
2024/01/15 05:16:16;;;;;;;15.20;9.67;;;;;;;;;;6036613;23;20454;-83
2024/01/15 05:18:43;;;;;;;14.87;8.10;;;;;;;;;;6062731;23;20502;-86
2024/01/15 05:21:18;;;;;;;13.30;6.97;;;;;;;;;;6064368;23;20469;-85
2024/01/15 05:23:45;;;;;;;15.40;8.47;;;;;;;;;;6064977;23;20494;-84
2024/01/15 05:26:12;;;;;;;12.20;7.40;;;;;;;;;;6062082;23;20469;-86
2024/01/15 05:28:42;;;;;;;12.37;7.30;;;;;;;;;;6062863;23;21104;-84
2024/01/15 05:31:10;;;;;;;12.80;7.93;;;;;;;;;;6036020;23;20934;-85
2024/01/15 05:33:40;;;;;;;16.13;7.87;;;;;;;;;;6063228;23;20970;-83
2024/01/15 05:36:08;;;;;;;14.73;9.10;;;;;;;;;;6035965;23;20387;-84
2024/01/15 05:38:35;;;;;;;14.93;8.93;;;;;;;;;;6036790;23;20797;-84
2024/01/15 05:41:03;;;;;;;12.23;7.90;;;;;;;;;;6066355;23;20421;-85
2024/01/15 05:43:30;;;;;;;16.77;7.97;;;;;;;;;;6053446;23;20417;-84
2024/01/15 05:45:58;;;;;;;10.60;7.37;;;;;;;;;;6068295;23;20458;-85
2024/01/15 05:48:25;;;;;;;10.47;7.33;;;;;;;;;;6063234;23;20430;-85
2024/01/15 05:50:52;;;;;;;11.57;7.67;;;;;;;;;;6039805;23;20470;-85
2024/01/15 05:53:19;;;;;;;9.60;6.47;;;;;;;;;;6039224;23;20521;-85
2024/01/15 05:55:46;;;;;;;11.60;8.07;;;;;;;;;;6037243;23;20489;-86
2024/01/15 05:58:14;;;;;;;12.07;7.93;;;;;;;;;;6038647;23;20444;-85
2024/01/15 06:00:41;;;;;;;11.50;6.60;;;;;;;;;;6040611;23;20939;-85
2024/01/15 06:03:08;;;;;;;13.53;7.43;;;;;;;;;;6039035;23;20980;-86
2024/01/15 06:05:37;;;;;;;12.53;7.67;;;;;;;;;;6067702;23;20419;-86
2024/01/15 06:08:04;;;;;;;15.70;7.20;;;;;;;;;;6044083;23;20432;-85
2024/01/15 06:10:31;;;;;;;10.83;6.87;;;;;;;;;;6057336;23;20542;-85
2024/01/15 06:12:58;;;;;;;11.00;6.83;;;;;;;;;;6060777;23;20434;-85
2024/01/15 06:15:28;;;;;;;14.60;7.90;;;;;;;;;;6062528;23;20426;-84
2024/01/15 06:17:56;;;;;;;18.73;8.57;;;;;;;;;;6081043;23;20431;-85
2024/01/15 06:20:23;;;;;;;11.57;7.57;;;;;;;;;;6043827;23;21115;-85
2024/01/15 06:22:51;;;;;;;10.87;7.23;;;;;;;;;;6042481;23;20415;-84
2024/01/15 06:25:20;;;;;;;9.70;7.67;;;;;;;;;;6043473;23;20422;-85
2024/01/15 06:27:47;;;;;;;12.03;7.20;;;;;;;;;;6067098;23;20403;-84
2024/01/15 06:30:14;;;;;;;12.00;7.60;;;;;;;;;;6039685;23;20514;-83
2024/01/15 06:32:41;;;;;;;11.83;6.80;;;;;;;;;;6041158;23;20756;-84
2024/01/15 06:35:11;;;;;;;10.03;7.37;;;;;;;;;;6041979;23;20473;-86
2024/01/15 06:37:38;;;;;;;13.53;8.20;;;;;;;;;;6051002;23;20443;-85
2024/01/15 06:40:06;;;;;;;14.50;7.50;;;;;;;;;;6049217;23;20442;-85
2024/01/15 06:42:33;;;;;;;10.83;8.17;;;;;;;;;;6044082;23;20446;-83
2024/01/15 06:45:00;;;;;;;11.27;7.90;;;;;;;;;;6077055;23;20403;-84
2024/01/15 06:47:27;;;;;;;12.73;7.53;;;;;;;;;;6082369;23;20448;-84
2024/01/15 06:49:55;;;;;;;10.87;7.20;;;;;;;;;;6056364;23;20430;-86
2024/01/15 06:52:22;;;;;;;14.03;7.67;;;;;;;;;;6086373;23;20445;-86
2024/01/15 06:54:49;;;;;;;12.03;8.07;;;;;;;;;;6063753;23;20426;-84
2024/01/15 06:57:16;;;;;;;15.20;8.07;;;;;;;;;;6089131;23;20398;-84
2024/01/15 06:59:44;;;;;;;12.80;8.00;;;;;;;;;;6086658;23;20419;-84
2024/01/15 07:02:12;;;;;;;10.63;7.10;;;;;;;;;;6079851;23;20462;-85
2024/01/15 07:04:39;;;;;;;12.67;8.70;;;;;;;;;;6060573;23;20406;-84
2024/01/15 07:07:09;;;;;;;10.70;7.10;;;;;;;;;;6087707;23;20420;-83
2024/01/15 07:09:36;;;;;;;10.77;8.00;;;;;;;;;;6087370;23;20431;-83
2024/01/15 07:12:06;;;;;;;15.80;8.20;;;;;;;;;;6061538;23;20538;-83
2024/01/15 07:14:33;;;;;;;14.80;8.83;;;;;;;;;;6079655;23;20426;-83
2024/01/15 07:17:00;;;;;;;13.53;7.60;;;;;;;;;;6039274;23;20439;-86
2024/01/15 07:19:27;;;;;;;11.67;7.20;;;;;;;;;;6038778;23;20446;-83
2024/01/15 07:21:54;;;;;;;11.40;8.23;;;;;;;;;;6062988;23;20422;-84
2024/01/15 07:24:23;;;;;;;9.40;7.50;;;;;;;;;;6065030;23;20474;-85
2024/01/15 07:26:50;;;;;;;10.00;5.80;;;;;;;;;;6061795;23;20549;-83
2024/01/15 07:29:20;;;;;;;12.50;7.20;;;;;;;;;;6037476;23;20445;-85
2024/01/15 07:31:50;;;;;;;10.30;7.53;;;;;;;;;;6043586;23;21290;-84
2024/01/15 07:34:18;;;;;;;11.07;7.20;;;;;;;;;;6037247;23;20513;-84
2024/01/15 07:36:45;;;;;;;11.80;7.60;;;;;;;;;;6035810;23;20491;-85
2024/01/15 07:39:13;;;;;;;11.23;7.97;;;;;;;;;;6062432;23;20482;-84
2024/01/15 07:41:41;;;;;;;11.70;7.83;;;;;;;;;;6043255;23;20451;-84
2024/01/15 07:44:08;;;;;;;9.93;6.80;;;;;;;;;;6072375;23;20422;-84
2024/01/15 07:46:39;;;;;;;8.50;6.90;;;;;;;;;;6047365;23;20424;-85
2024/01/15 07:49:07;;;;;;;9.90;7.67;;;;;;;;;;6069052;23;20505;-85
2024/01/15 07:51:34;;;;;;;12.10;7.00;;;;;;;;;;6062924;23;20471;-84
2024/01/15 07:54:02;;;;;;;11.00;7.03;;;;;;;;;;6056686;23;20414;-84
2024/01/15 07:56:29;;;;;;;11.23;7.90;;;;;;;;;;6039325;23;20436;-85
2024/01/15 07:58:57;;;;;;;15.80;7.70;;;;;;;;;;6040787;23;20428;-85
2024/01/15 08:01:26;;;;;;;15.40;8.33;;;;;;;;;;6040739;23;20427;-84
2024/01/15 08:03:55;;;;;;;11.77;8.07;;;;;;;;;;6036269;23;20449;-86
2024/01/15 08:06:22;;;;;;;17.30;10.30;;;;;;;;;;6038818;23;20606;-83
2024/01/15 08:08:50;;;;;;;16.53;8.10;;;;;;;;;;6041465;23;20438;-84
2024/01/15 08:11:17;;;;;;;12.00;8.73;;;;;;;;;;6041920;23;20448;-84
2024/01/15 08:13:47;;;;;;;18.73;12.33;;;;;;;;;;6068912;23;20476;-82
2024/01/15 08:16:15;;;;;;;12.03;9.00;;;;;;;;;;6041347;23;20458;-83
2024/01/15 08:18:44;;;;;;;16.60;9.33;;;;;;;;;;6035191;23;20447;-86
2024/01/15 08:21:16;;;;;;;18.17;10.60;;;;;;;;;;6010536;23;20648;-85
2024/01/15 08:23:43;;;;;;;14.80;9.50;;;;;;;;;;6042066;23;20451;-86
2024/01/15 08:26:12;;;;;;;13.80;9.73;;;;;;;;;;6013654;23;20441;-85
2024/01/15 08:28:40;;;;;;;13.67;9.07;;;;;;;;;;6016255;23;20504;-87
2024/01/15 08:31:10;;;;;;;11.73;8.83;;;;;;;;;;6022042;23;20439;-85
2024/01/15 08:33:40;;;;;;;13.03;9.33;;;;;;;;;;6019073;23;20420;-85
2024/01/15 08:36:07;;;;;;;15.00;10.50;;;;;;;;;;6016838;23;20422;-86
2024/01/15 08:38:35;;;;;;;18.37;8.87;;;;;;;;;;6033208;23;20437;-87
2024/01/15 08:41:02;;;;;;;14.20;9.40;;;;;;;;;;6036287;23;20437;-87
2024/01/15 08:43:32;;;;;;;15.50;9.27;;;;;;;;;;6013178;23;20450;-86
2024/01/15 08:46:02;;;;;;;12.67;7.97;;;;;;;;;;6032245;23;20490;-84
2024/01/15 08:48:29;;;;;;;12.47;9.60;;;;;;;;;;6034495;23;20431;-84
2024/01/15 08:50:59;;;;;;;17.17;10.87;;;;;;;;;;6009946;23;21293;-86
2024/01/15 08:53:39;;;;;;;13.50;7.70;;;;;;;;;;6040262;23;20422;-85
2024/01/15 08:56:08;;;;;;;15.63;9.03;;;;;;;;;;6012039;23;20966;-87
2024/01/15 08:58:35;;;;;;;11.83;9.37;;;;;;;;;;6010205;23;20443;-85
2024/01/15 09:05:10;;;;;;;;;;;;;;;;;;;;;
2024/01/15 09:11:31;;;;;;;14.77;8.17;;;;;;;;;;5687499;25;20475;-84
2024/01/15 09:14:15;;;;;;;13.30;8.33;;;;;;;;;;5700078;24;20463;-83
2024/01/15 09:16:50;;;;;;;14.77;9.40;;;;;;;;;;5790405;24;20468;-85
2024/01/15 09:19:20;;;;;;;10.50;7.20;;;;;;;;;;5846925;24;20444;-84
2024/01/15 09:21:50;;;;;;;13.37;7.57;;;;;;;;;;5875017;24;20479;-85
2024/01/15 09:24:17;;;;;;;11.07;6.97;;;;;;;;;;5946205;24;20438;-84
2024/01/15 09:26:47;;;;;;;12.83;7.20;;;;;;;;;;5942841;24;20466;-85
2024/01/15 09:29:15;;;;;;;7.80;6.80;;;;;;;;;;5918771;24;20983;-84
2024/01/15 09:31:44;;;;;;;12.87;6.70;;;;;;;;;;5920042;24;20454;-85
2024/01/15 09:34:11;;;;;;;9.47;7.00;;;;;;;;;;5920389;24;20418;-84
2024/01/15 09:36:42;;;;;;;7.53;5.70;;;;;;;;;;5921543;24;20433;-84
2024/01/15 09:39:10;;;;;;;8.50;5.67;;;;;;;;;;6016699;23;20490;-84
2024/01/15 09:41:38;;;;;;;7.10;4.90;;;;;;;;;;6015069;23;20853;-84
2024/01/15 09:44:07;;;;;;;7.23;4.83;;;;;;;;;;6035615;23;20458;-85
2024/01/15 09:46:35;;;;;;;9.13;5.90;;;;;;;;;;6005951;23;20428;-85
2024/01/15 09:49:03;;;;;;;9.97;6.00;;;;;;;;;;6007015;23;20439;-84
2024/01/15 09:51:32;;;;;;;7.30;5.60;;;;;;;;;;6008310;23;20446;-85
2024/01/15 09:54:04;;;;;;;6.20;5.20;;;;;;;;;;6009526;23;20463;-84
2024/01/15 09:56:32;;;;;;;7.90;5.50;;;;;;;;;;6009502;23;20474;-84
2024/01/15 09:59:34;;;;;;;5.50;4.87;;;;;;;;;;6012261;23;20446;-84
2024/01/15 10:02:02;;;;;;;5.37;3.97;;;;;;;;;;6035419;23;20455;-84
2024/01/15 10:04:33;;;;;;;5.90;4.93;;;;;;;;;;6014554;23;20422;-84
2024/01/15 10:07:01;;;;;;;4.83;3.83;;;;;;;;;;6036775;23;20423;-85
2024/01/15 10:09:30;;;;;;;5.83;4.97;;;;;;;;;;6008867;23;20471;-86
2024/01/15 10:12:08;;;;;;;6.83;4.70;;;;;;;;;;6019304;23;20427;-85
2024/01/15 10:14:39;;;;;;;3.00;2.80;;;;;;;;;;6021446;23;20874;-84
2024/01/15 10:17:13;;;;;;;6.17;3.30;;;;;;;;;;6045727;23;20488;-85
2024/01/15 10:19:43;;;;;;;3.47;2.90;;;;;;;;;;6058971;23;20481;-85
2024/01/15 10:22:15;;;;;;;4.30;3.00;;;;;;;;;;6059345;23;21118;-86
2024/01/15 10:24:43;;;;;;;3.37;3.07;;;;;;;;;;6082964;23;20410;-85
2024/01/15 10:27:12;;;;;;;4.23;3.23;;;;;;;;;;6044245;23;20465;-85
2024/01/15 10:29:41;;;;;;;3.17;2.93;;;;;;;;;;6040125;23;20445;-84
2024/01/15 10:32:12;;;;;;;3.10;2.57;;;;;;;;;;6065888;23;20461;-84
2024/01/15 10:34:40;;;;;;;5.83;3.27;;;;;;;;;;6043999;23;20416;-84
2024/01/15 10:37:09;;;;;;;3.87;3.30;;;;;;;;;;6037589;23;20472;-83
2024/01/15 10:39:37;;;;;;;5.33;3.17;;;;;;;;;;6069274;23;21098;-84
2024/01/15 10:42:08;;;;;;;4.40;4.00;;;;;;;;;;6065484;23;20422;-86
2024/01/15 10:44:38;;;;;;;4.43;3.37;;;;;;;;;;6039710;23;20938;-85
2024/01/15 10:47:08;;;;;;;3.50;3.20;;;;;;;;;;6040072;23;20945;-86
2024/01/15 10:49:38;;;;;;;4.40;3.53;;;;;;;;;;6041219;23;20437;-83
2024/01/15 10:52:05;;;;;;;4.70;3.47;;;;;;;;;;6064843;23;20447;-85
2024/01/15 10:54:33;;;;;;;4.17;3.10;;;;;;;;;;6065099;23;20469;-84
2024/01/15 10:57:00;;;;;;;3.20;2.83;;;;;;;;;;6065055;23;20426;-82
2024/01/15 10:59:28;;;;;;;3.10;2.80;;;;;;;;;;6040127;23;20459;-85
2024/01/15 11:02:19;;;;;;;3.17;2.93;;;;;;;;;;6038624;23;20791;-84
2024/01/15 11:07:41;;;;;;;3.70;2.47;;;;;;;;;;6065033;23;20909;-85
2024/01/15 11:10:33;;;;;;;2.93;2.50;;;;;;;;;;6041218;23;20410;-83
2024/01/15 11:13:00;;;;;;;2.73;2.23;;;;;;;;;;6039713;23;20446;-86
2024/01/15 11:15:30;;;;;;;3.30;2.57;;;;;;;;;;6040419;23;20485;-86
2024/01/15 11:18:11;;;;;;;5.97;3.07;;;;;;;;;;6043490;23;20433;-86
2024/01/15 11:21:06;;;;;;;2.20;2.03;;;;;;;;;;6049860;23;20477;-88
2024/01/15 11:23:46;;;;;;;3.27;2.30;;;;;;;;;;6076547;23;20511;-88
2024/01/15 11:26:32;;;;;;;2.20;2.00;;;;;;;;;;6050555;23;20425;-87
2024/01/15 11:29:07;;;;;;;2.27;1.90;;;;;;;;;;6051231;23;20445;-87
2024/01/15 11:31:41;;;;;;;2.77;2.03;;;;;;;;;;6051452;23;20446;-85
2024/01/15 11:34:19;;;;;;;3.87;2.37;;;;;;;;;;6054131;23;20573;-86
2024/01/15 11:36:54;;;;;;;4.03;2.60;;;;;;;;;;6090364;23;20494;-86
2024/01/15 11:39:27;;;;;;;2.53;2.33;;;;;;;;;;6079912;23;20468;-89
2024/01/15 11:42:01;;;;;;;2.53;2.33;;;;;;;;;;6053686;23;20468;-87
2024/01/15 11:44:31;;;;;;;2.87;2.63;;;;;;;;;;6055388;23;20470;-88
2024/01/15 11:47:09;;;;;;;4.53;2.70;;;;;;;;;;6054339;23;20505;-87
2024/01/15 11:50:00;;;;;;;2.37;2.27;;;;;;;;;;6079789;23;20439;-87
2024/01/15 11:52:37;;;;;;;4.40;3.80;;;;;;;;;;6052490;23;20490;-87
2024/01/15 11:55:22;;;;;;;4.93;3.43;;;;;;;;;;6076408;23;20561;-86
2024/01/15 11:57:56;;;;;;;4.53;4.13;;;;;;;;;;6052522;23;20525;-87
2024/01/15 12:00:27;;;;;;;3.60;3.30;;;;;;;;;;6082513;23;20404;-87
2024/01/15 12:02:55;;;;;;;3.83;3.50;;;;;;;;;;6057074;23;20411;-87
2024/01/15 12:05:23;;;;;;;3.67;3.30;;;;;;;;;;6056216;23;20433;-87
2024/01/15 12:07:50;;;;;;;5.17;3.20;;;;;;;;;;6078609;23;20758;-86
2024/01/15 12:10:21;;;;;;;7.37;4.13;;;;;;;;;;6055324;23;20478;-87
2024/01/15 12:13:07;;;;;;;5.53;3.90;;;;;;;;;;6055576;23;20442;-87
2024/01/15 12:15:43;;;;;;;5.23;3.63;;;;;;;;;;6080112;23;20410;-89
2024/01/15 12:18:15;;;;;;;3.67;3.40;;;;;;;;;;6080325;23;20522;-87
2024/01/15 12:20:45;;;;;;;5.50;4.10;;;;;;;;;;6055394;23;20479;-87
2024/01/15 12:23:16;;;;;;;7.07;4.27;;;;;;;;;;6079723;23;20446;-88
2024/01/15 12:25:47;;;;;;;6.70;4.10;;;;;;;;;;6054927;23;20415;-88
2024/01/15 12:28:17;;;;;;;4.73;4.30;;;;;;;;;;6053882;23;20442;-88
2024/01/15 12:30:50;;;;;;;4.70;4.30;;;;;;;;;;6054311;23;20434;-87
2024/01/15 12:33:20;;;;;;;6.17;4.20;;;;;;;;;;6053496;23;20531;-86
2024/01/15 12:35:48;;;;;;;7.87;4.23;;;;;;;;;;6052784;23;20394;-86
2024/01/15 12:38:19;;;;;;;6.10;4.00;;;;;;;;;;6048998;23;20505;-86
2024/01/15 12:40:46;;;;;;;5.23;3.67;;;;;;;;;;6050048;23;20408;-87
2024/01/15 12:43:14;;;;;;;6.17;3.87;;;;;;;;;;6052445;23;20447;-85
2024/01/15 12:45:43;;;;;;;5.40;4.17;;;;;;;;;;6074134;23;20801;-87
2024/01/15 12:48:15;;;;;;;7.30;3.80;;;;;;;;;;6050117;23;20762;-87
2024/01/15 12:50:47;;;;;;;3.93;3.53;;;;;;;;;;6051338;23;20412;-87
2024/01/15 12:53:15;;;;;;;6.40;3.60;;;;;;;;;;6051572;23;20819;-87
2024/01/15 12:55:42;;;;;;;5.67;3.87;;;;;;;;;;6050305;23;20415;-87
2024/01/15 12:58:12;;;;;;;8.03;3.77;;;;;;;;;;6075660;23;20437;-86
2024/01/15 13:00:39;;;;;;;10.50;4.47;;;;;;;;;;6075538;23;20417;-86
2024/01/15 13:03:13;;;;;;;5.03;3.97;;;;;;;;;;6077171;23;20388;-87
2024/01/15 13:05:41;;;;;;;9.17;3.70;;;;;;;;;;6075072;23;20404;-86
2024/01/15 13:08:09;;;;;;;9.53;3.70;;;;;;;;;;6047243;23;20446;-85
2024/01/15 13:10:42;;;;;;;3.30;2.63;;;;;;;;;;6047390;23;20420;-86
2024/01/15 13:13:09;;;;;;;3.53;2.80;;;;;;;;;;6053014;23;20527;-86
2024/01/15 13:15:36;;;;;;;4.30;3.10;;;;;;;;;;6075527;23;20421;-87
2024/01/15 13:18:04;;;;;;;4.20;2.77;;;;;;;;;;6051927;23;20411;-87
2024/01/15 13:20:32;;;;;;;4.23;3.27;;;;;;;;;;6066279;23;20391;-87
2024/01/15 13:22:59;;;;;;;5.40;3.10;;;;;;;;;;6093210;23;20419;-87
2024/01/15 13:25:29;;;;;;;4.33;3.10;;;;;;;;;;6087616;23;20406;-87
2024/01/15 13:28:30;;;;;;;4.17;3.43;;;;;;;;;;6089953;23;20420;-86
2024/01/15 13:31:02;;;;;;;4.33;2.80;;;;;;;;;;6093763;23;20424;-86
2024/01/15 13:33:39;;;;;;;3.03;2.17;;;;;;;;;;6057537;23;20527;-87
2024/01/15 13:36:13;;;;;;;3.07;2.40;;;;;;;;;;6092714;23;20395;-84
2024/01/15 13:38:41;;;;;;;5.00;3.17;;;;;;;;;;6089215;23;20818;-87
2024/01/15 13:41:18;;;;;;;4.90;2.20;;;;;;;;;;6077850;23;20414;-87
2024/01/15 13:43:46;;;;;;;2.40;2.00;;;;;;;;;;6079217;23;20424;-87
2024/01/15 13:46:15;;;;;;;2.87;1.90;;;;;;;;;;6081029;23;20414;-87
2024/01/15 13:48:45;;;;;;;2.30;2.10;;;;;;;;;;6081374;23;20968;-86
2024/01/15 13:51:17;;;;;;;3.43;1.50;;;;;;;;;;6078396;23;20414;-87
2024/01/15 13:53:44;;;;;;;2.93;1.90;;;;;;;;;;6055777;23;20474;-87
2024/01/15 13:56:12;;;;;;;2.37;1.50;;;;;;;;;;6079134;23;20424;-86
2024/01/15 13:58:42;;;;;;;2.83;1.77;;;;;;;;;;6080603;23;20437;-87
2024/01/15 14:01:15;;;;;;;3.60;1.60;;;;;;;;;;6078930;23;20767;-86
2024/01/15 14:03:44;;;;;;;1.50;1.33;;;;;;;;;;6080855;23;20427;-86
2024/01/15 14:06:16;;;;;;;1.53;1.43;;;;;;;;;;6079489;23;20379;-87
2024/01/15 14:08:43;;;;;;;2.17;1.70;;;;;;;;;;6057411;23;20828;-87
2024/01/15 14:11:17;;;;;;;0.93;0.93;;;;;;;;;;6080649;23;20421;-86
2024/01/15 14:13:45;;;;;;;1.53;1.10;;;;;;;;;;6084095;23;20445;-86
2024/01/15 14:16:26;;;;;;;2.30;1.30;;;;;;;;;;6082703;23;20395;-86
2024/01/15 14:19:09;;;;;;;2.27;1.37;;;;;;;;;;6084350;23;20410;-85
2024/01/15 14:21:44;;;;;;;3.73;1.33;;;;;;;;;;6085243;23;20439;-88
2024/01/15 14:24:21;;;;;;;1.50;1.40;;;;;;;;;;6064673;23;20446;-86
2024/01/15 14:26:53;;;;;;;2.03;1.57;;;;;;;;;;6091803;23;20422;-85
2024/01/15 14:29:22;;;;;;;2.07;1.17;;;;;;;;;;6088049;23;20442;-86
2024/01/15 14:31:51;;;;;;;1.20;1.10;;;;;;;;;;6087979;23;20931;-87
2024/01/15 14:34:23;;;;;;;1.90;1.47;;;;;;;;;;6083622;23;20494;-87
2024/01/15 14:36:53;;;;;;;2.00;1.63;;;;;;;;;;6084288;23;20495;-87
2024/01/15 14:39:38;;;;;;;1.47;1.30;;;;;;;;;;6080381;23;20412;-86
2024/01/15 14:42:24;;;;;;;0.90;0.90;;;;;;;;;;6085615;23;20399;-87
2024/01/15 14:45:16;;;;;;;2.20;1.77;;;;;;;;;;6062526;23;20419;-86
2024/01/15 14:47:45;;;;;;;2.40;1.80;;;;;;;;;;6084587;23;20422;-87
2024/01/15 14:50:14;;;;;;;1.43;1.33;;;;;;;;;;6085149;23;20462;-87
2024/01/15 14:52:56;;;;;;;1.40;1.30;;;;;;;;;;6079370;23;20529;-88
2024/01/15 14:55:30;;;;;;;1.33;1.23;;;;;;;;;;6082226;23;20446;-88